Flight Track Log - Related Links

Times and Time Zones

All times are in EDT time to prevent confusion due to time zone crossing. See the CCA4393 flight status page for this flight to view local times or setup timezone preferences in your user account.

Time Position Orientation Groundspeed Altitude Reporting Facility
EDT Latitude Longitude Course Direction KTS MPH feet Rate Location/Type
Sat 08:09:00 PM 32.5287 104.0615 136° Southeast  Level Estimated
Sat 08:10:00 PM 32.4464 104.1557 136° Southeast  Level Estimated
Sat 08:11:00 PM 32.3641 104.2497 136° Southeast  Level Estimated
Sat 08:12:00 PM 32.2817 104.3436 136° Southeast  Level Estimated
Sat 08:13:00 PM 32.1993 104.4372 136° Southeast  Level Estimated
Sat 08:14:00 PM 32.1167 104.5308 136° Southeast  Level Estimated
Sat 08:15:00 PM 32.0341 104.6241 136° Southeast  Level Estimated
Sat 08:16:00 PM 31.9515 104.7173 136° Southeast  Level Estimated
Sat 08:17:00 PM 31.8687 104.8103 136° Southeast  Level Estimated
Sat 08:18:00 PM 31.7859 104.9031 136° Southeast  Level Estimated
Sat 08:19:00 PM 31.7031 104.9958 136° Southeast  Level Estimated
Sat 08:20:00 PM 31.6201 105.0883 136° Southeast  Level Estimated
Sat 08:21:00 PM 31.5371 105.1806 137° Southeast  Level Estimated
Sat 08:22:00 PM 31.4541 105.2728 137° Southeast  Level Estimated
Sat 08:23:00 PM 31.3709 105.3648 137° Southeast  Level Estimated
Sat 08:24:00 PM 31.2877 105.4567 137° Southeast  Level Estimated
Sat 08:25:00 PM 31.2045 105.5484 137° Southeast  Level Estimated
Sat 08:26:00 PM 31.1211 105.6399 137° Southeast  Level Estimated
Sat 08:27:00 PM 31.0378 105.7313 137° Southeast  Level Estimated
Sat 08:28:00 PM 30.9543 105.8225 137° Southeast  Level Estimated
Sat 08:29:00 PM 30.8708 105.9135 137° Southeast  Level Estimated
Sat 08:30:00 PM 30.7872 106.0044 137° Southeast  Level Estimated
Sat 08:31:00 PM 30.7035 106.0952 137° Southeast  Level Estimated
Sat 08:32:00 PM 30.6198 106.1857 137° Southeast  Level Estimated
Sat 08:33:00 PM 30.5361 106.2761 137° Southeast  Level Estimated
Sat 08:34:00 PM 30.4522 106.3664 137° Southeast  Level Estimated
Sat 08:35:00 PM 30.3683 106.4565 137° Southeast  Level Estimated
Sat 08:36:00 PM 30.2844 106.5465 137° Southeast  Level Estimated
Sat 08:37:00 PM 30.2003 106.6363 137° Southeast  Level Estimated
Sat 08:38:00 PM 30.1163 106.7259 137° Southeast  Level Estimated
Sat 08:39:00 PM 30.0321 106.8154 137° Southeast  Level Estimated
Sat 08:40:00 PM 29.9479 106.9047 137° Southeast  Level Estimated
Sat 08:41:00 PM 29.8637 106.9939 137° Southeast  Level Estimated
Sat 08:42:00 PM 29.7793 107.0830 137° Southeast  Level Estimated
Sat 08:43:00 PM 29.6950 107.1719 138° Southeast  Level Estimated
Sat 08:44:00 PM 29.6105 107.2606 138° Southeast  Level Estimated
Sat 08:45:00 PM 29.5260 107.3492 138° Southeast  Level Estimated
Sat 08:46:00 PM 29.4415 107.4376 138° Southeast  Level Estimated
Sat 08:47:00 PM 29.3568 107.5259 138° Southeast  Level Estimated
Sat 08:48:00 PM 29.2722 107.6141 138° Southeast  Level Estimated
Sat 08:49:00 PM 29.1874 107.7021 138° Southeast  Level Estimated
Sat 08:50:00 PM 29.1026 107.7899 138° Southeast  Level Estimated
Sat 08:51:00 PM 29.0178 107.8776 138° Southeast  Level Estimated
Sat 08:52:00 PM 28.9329 107.9652 138° Southeast  Level Estimated
Sat 08:53:00 PM 28.8479 108.0527 138° Southeast  Level Estimated
Sat 08:54:00 PM 28.7629 108.1399 138° Southeast  Level Estimated
Sat 08:55:00 PM 28.6778 108.2271 138° Southeast  Level Estimated
Sat 08:56:00 PM 28.5927 108.3141 138° Southeast  Level Estimated
Sat 08:57:00 PM 28.5075 108.4009 138° Southeast  Level Estimated
Sat 08:58:00 PM 28.4223 108.4876 138° Southeast  Level Estimated
Sat 08:59:00 PM 28.3370 108.5742 138° Southeast  Level Estimated
Sat 09:00:00 PM 28.2516 108.6607 138° Southeast  Level Estimated
Sat 09:01:00 PM 28.1662 108.7470 138° Southeast  Level Estimated
Sat 09:02:00 PM 28.0807 108.8331 138° Southeast  Level Estimated
Sat 09:03:00 PM 27.9952 108.9192 138° Southeast  Level Estimated
Sat 09:04:00 PM 27.9097 109.0051 138° Southeast  Level Estimated
Sat 09:05:00 PM 27.8240 109.0908 138° Southeast  Level Estimated
Sat 09:06:00 PM 27.7384 109.1764 138° Southeast  Level Estimated
Sat 09:07:00 PM 27.6526 109.2619 139° Southeast  Level Estimated
Sat 09:08:00 PM 27.5669 109.3473 139° Southeast  Level Estimated
Sat 09:09:00 PM 27.4810 109.4325 139° Southeast  Level Estimated
Sat 09:10:00 PM 27.3951 109.5176 139° Southeast  Level Estimated
Sat 09:11:00 PM 27.3092 109.6025 139° Southeast  Level Estimated
Sat 09:12:00 PM 27.2232 109.6873 139° Southeast  Level Estimated
Sat 09:13:00 PM 27.1372 109.7720 139° Southeast  Level Estimated
Sat 09:14:00 PM 27.0511 109.8566 139° Southeast  Level Estimated
Sat 09:15:00 PM 26.9650 109.9410 139° Southeast  Level Estimated
Sat 09:16:00 PM 26.8788 110.0253 139° Southeast  Level Estimated
Sat 09:17:00 PM 26.7925 110.1095 139° Southeast  Level Estimated
Sat 09:18:00 PM 26.7062 110.1935 139° Southeast  Level Estimated
Sat 09:19:00 PM 26.6199 110.2775 139° Southeast  Level Estimated
Sat 09:20:00 PM 26.5335 110.3612 139° Southeast  Level Estimated
Sat 09:21:00 PM 26.4471 110.4449 139° Southeast  Level Estimated
Sat 09:22:00 PM 26.3606 110.5285 139° Southeast  Level Estimated
Sat 09:23:00 PM 26.2741 110.6119 139° Southeast  Level Estimated
Sat 09:24:00 PM 26.1875 110.6952 139° Southeast  Level Estimated
Sat 09:25:00 PM 26.1009 110.7783 139° Southeast  Level Estimated
Sat 09:26:00 PM 26.0142 110.8614 139° Southeast  Level Estimated
Sat 09:27:00 PM 25.9275 110.9443 139° Southeast  Level Estimated
Sat 09:28:00 PM 25.8407 111.0271 139° Southeast  Level Estimated
Sat 09:29:00 PM 25.7539 111.1098 139° Southeast  Level Estimated
Sat 09:30:00 PM 25.6670 111.1923 139° Southeast  Level Estimated
Sat 09:31:00 PM 25.5801 111.2748 139° Southeast  Level Estimated
Sat 09:32:00 PM 25.4932 111.3571 139° Southeast  Level Estimated
Sat 09:33:00 PM 25.4062 111.4393 140° Southeast  Level Estimated
Sat 09:34:00 PM 25.3191 111.5214 140° Southeast  Level Estimated
Sat 09:35:00 PM 25.2320 111.6033 140° Southeast  Level Estimated
Sat 09:36:00 PM 25.1449 111.6852 140° Southeast  Level Estimated
Sat 09:37:00 PM 25.0577 111.7669 140° Southeast  Level Estimated
Sat 09:38:00 PM 24.9705 111.8485 140° Southeast  Level Estimated
Sat 09:39:00 PM 24.8832 111.9300 140° Southeast  Level Estimated
Sat 09:40:00 PM 24.7959 112.0114 140° Southeast  Level Estimated
Sat 09:41:00 PM 24.7085 112.0927 140° Southeast  Level Estimated
Sat 09:42:00 PM 24.6211 112.1738 140° Southeast  Level Estimated
Sat 09:43:00 PM 24.5337 112.2548 140° Southeast  Level Estimated
Sat 09:43:38 PM 24.5220 110.9350 140° Southeast 468 539 35,100  Level FlightAware ADS-B
Sat 09:44:00 PM 24.4462 112.3358 140° Southeast  Level Estimated
Sat 09:44:39 PM 24.4250 111.0400 135° Southeast 466 536 35,100  Level FlightAware ADS-B
Sat 09:45:22 PM 24.3700 111.1000 135° Southeast 466 536 35,100  Level FlightAware ADS-B
Sat 09:46:03 PM 24.2970 111.1770 136° Southeast 459 528 35,100  Level FlightAware ADS-B
Sat 09:46:51 PM 24.2250 111.2540 136° Southeast 461 531 35,100 -326 Level FlightAware ADS-B
Sat 09:47:35 PM 24.1560 111.3280 136° Southeast 462 532 34,600 -809 Descending FlightAware ADS-B
Sat 09:48:20 PM 24.0900 111.4000 135° Southeast 461 531 33,900 -978 Descending FlightAware ADS-B
Sat 09:49:07 PM 24.0170 111.4780 136° Southeast 465 535 33,100 -1,034 Descending FlightAware ADS-B
Sat 09:49:47 PM 23.9540 111.5460 135° Southeast 468 539 32,400 -608 Descending FlightAware ADS-B
Sat 09:50:26 PM 23.9020 111.6030 135° Southeast 469 540 32,300 -951 Descending FlightAware ADS-B
Sat 09:51:09 PM 23.8280 111.6820 136° Southeast 473 544 31,100 -990 Descending FlightAware ADS-B
Sat 09:52:09 PM 23.7440 111.7730 135° Southeast 475 547 30,600 -313 Descending FlightAware ADS-B
Sat 09:52:45 PM 23.6960 111.8250 135° Southeast 475 547 30,600 -3,253 Level FlightAware ADS-B
Sat 09:53:32 PM 23.6070 111.9180 136° Southeast 449 517 26,100 -4,345 Descending FlightAware ADS-B
Sat 09:54:12 PM 23.5480 111.9810 136° Southeast 441 507 24,300 -2,688 Descending FlightAware ADS-B
Sat 09:55:08 PM 23.4660 112.0680 136° Southeast 430 495 21,800 -2,632 Descending FlightAware ADS-B
Sat 09:56:06 PM 23.3850 112.1540 136° Southeast 420 483 19,300 -2,633 Descending FlightAware ADS-B
Sat 09:56:46 PM 23.3300 112.2130 135° Southeast 414 476 17,500 -2,571 Descending FlightAware ADS-B
Sat 09:57:30 PM 23.2710 112.2750 136° Southeast 410 472 15,700 -2,429 Descending FlightAware ADS-B
Sat 09:58:10 PM 23.2160 112.3330 136° Southeast 398 458 14,100 -1,976 Descending FlightAware ADS-B
Sat 09:58:52 PM 23.1620 112.3910 135° Southeast 383 441 13,000 -929 Descending FlightAware ADS-B
Sat 09:59:34 PM 23.1080 112.4470 136° Southeast 386 444 12,800 -171 Descending FlightAware ADS-B
Sat 10:00:02 PM 23.0780 112.4900 127° Southeast 394 453 12,800  Level FlightAware ADS-B
Sat 10:00:18 PM 23.0700 112.5210 106° East 398 458 12,800  Level FlightAware ADS-B
Sat 10:01:00 PM 23.0700 112.6070 90° East 403 464 12,800  Level FlightAware ADS-B
Sat 10:01:40 PM 23.0700 112.6840 90° East 399 459 12,800 -532 Level FlightAware ADS-B
Sat 10:02:19 PM 23.0690 112.7610 91° East 398 458 12,100 -1,103 Descending FlightAware ADS-B
Sat 10:03:07 PM 23.0680 112.8560 91° East 373 429 11,200 -897 Descending FlightAware ADS-B
Sat 10:03:46 PM 23.0680 112.9270 90° East 340 391 10,800 -289 Descending FlightAware ADS-B
Sat 10:04:30 PM 23.0680 112.9970 90° East 306 352 10,800  Level FlightAware ADS-B
Sat 10:05:10 PM 23.0670 113.0570 91° East 306 352 10,800  Level FlightAware ADS-B
Sat 10:06:06 PM 23.0830 113.1390 78° East 299 344 10,800 -174 Level FlightAware ADS-B
Sat 10:06:19 PM 23.0970 113.1490 33° Northeast 292 336 10,600 -1,154 Descending FlightAware ADS-B
Sat 10:06:32 PM 23.1140 113.1530 12° North 283 326 10,300 -1,600 Descending FlightAware ADS-B
Sat 10:07:04 PM 23.1560 113.1450 350° North 279 321 9,400 -1,000 Descending FlightAware ADS-B
Sat 10:07:44 PM 23.2090 113.1460 North 292 336 9,100 -321 Descending FlightAware ADS-B
Sat 10:08:00 PM 23.2300 113.1490 North 294 338 9,100  Level FlightAware ADS-B
Sat 10:08:28 PM 23.2670 113.1570 11° North 292 336 9,100  Level FlightAware ADS-B
Sat 10:08:57 PM 23.3050 113.1650 11° North 291 335 9,100  Level FlightAware ADS-B
Sat 10:09:08 PM 23.3210 113.1680 10° North 292 336 9,100  Level FlightAware ADS-B
Sat 10:09:38 PM 23.3600 113.1770 12° North 294 338 9,100  Level FlightAware ADS-B
Sat 10:10:06 PM 23.3990 113.1850 11° North 294 338 9,100 -250 Level FlightAware ADS-B
Sat 10:10:26 PM 23.4250 113.1900 10° North 291 335 8,900 -1,109 Descending FlightAware ADS-B
Sat 10:11:38 PM 23.5160 113.2100 11° North 295 339 7,400 -1,366 Descending FlightAware ADS-B
Sat 10:12:07 PM 23.5600 113.2190 11° North 293 337 6,600 -1,179 Descending FlightAware ADS-B
Sat 10:12:34 PM 23.5960 113.2260 10° North 276 318 6,300 -526 Descending FlightAware ADS-B
Sat 10:13:04 PM 23.6320 113.2340 12° North 260 299 6,100 -214 Descending FlightAware ADS-B
Sat 10:13:30 PM 23.6600 113.2410 13° North 238 274 6,100  Level FlightAware ADS-B
Sat 10:13:44 PM 23.6760 113.2450 13° North 236 272 6,100 -273 Level FlightAware ADS-B
Sat 10:14:14 PM 23.7050 113.2600 25° Northeast 241 277 5,900 -714 Descending FlightAware ADS-B
Sat 10:14:26 PM 23.7110 113.2730 63° Northeast 235 270 5,600 -1,200 Descending FlightAware ADS-B
Sat 10:14:54 PM 23.7090 113.3040 94° East 218 251 5,100 -936 Descending FlightAware ADS-B
Sat 10:16:15 PM 23.6780 113.3630 120° Southeast 175 201 3,900 -673 Descending FlightAware ADS-B
Sat 10:16:41 PM 23.6610 113.3690 162° South 175 201 3,900 -506 Level FlightAware ADS-B
Sat 10:17:38 PM 23.6070 113.3680 181° South 173 199 3,200 -477 Descending FlightAware ADS-B
Sat 10:18:09 PM 23.5830 113.3610 195° South 163 188 3,200 -100 Level FlightAware ADS-B
Sat 10:18:38 PM 23.5610 113.3550 194° South 156 180 3,100 -421 Descending FlightAware ADS-B
Sat 10:19:06 PM 23.5430 113.3500 194° South 143 165 2,800 -692 Descending FlightAware ADS-B
Sat 10:19:30 PM 23.5280 113.3470 190° South 129 148 2,500 -360 Descending FlightAware ADS-B
Sat 10:19:56 PM 23.5150 113.3430 196° South 129 148 2,500  Level FlightAware ADS-B
Sat 10:22:00 PM 23.3924 113.2988 198° South  Level Estimated

Login

Don't have an account? Register now (free) for customized features, flight alerts, and more!